Time;durP1;ratioP1;P1;durP2;ratioP2;P2;SDS_P1;SDS_P2;PMS_P1;PMS_P2;Temp;Humidity;BMP_temperature;BMP_pressure;BME280_temperature;BME280_humidity;BME280_pressure;Samples;Min_cycle;Max_cycle;Signal;HPM_P1;HPM_P2
2023/07/15 00:00:13;;;;;;;2.67;0.57;;;18.40;99.90;;;;;;5085327;28;20040;-71
2023/07/15 00:02:41;;;;;;;0.82;0.28;;;18.40;99.90;;;;;;5085272;28;20044;-71
2023/07/15 00:05:29;;;;;;;3.95;0.40;;;18.40;99.90;;;;;;5084844;28;20040;-71
2023/07/15 00:07:55;;;;;;;0.10;0.10;;;18.30;1.00;;;;;;5084911;28;20063;-70
2023/07/15 00:10:21;;;;;;;0.50;0.45;;;18.30;1.00;;;;;;5084636;28;20040;-71
2023/07/15 00:12:47;;;;;;;0.85;0.75;;;18.20;99.90;;;;;;5085049;28;20449;-71
2023/07/15 00:15:14;;;;;;;1.83;1.02;;;18.20;1.00;;;;;;5085137;28;20048;-71
2023/07/15 00:17:40;;;;;;;3.17;1.35;;;18.20;99.90;;;;;;5084843;28;20540;-71
2023/07/15 00:20:14;;;;;;;0.57;0.40;;;18.10;99.90;;;;;;5084936;28;20107;-71
2023/07/15 00:22:44;;;;;;;0.38;0.35;;;18.10;99.90;;;;;;5085113;28;20044;-70
2023/07/15 00:25:15;;;;;;;0.75;0.68;;;18.10;1.00;;;;;;5085068;28;20052;-70
2023/07/15 00:27:46;;;;;;;1.30;0.30;;;18.20;1.00;;;;;;5085020;28;20052;-71
2023/07/15 00:30:14;;;;;;;3.58;1.27;;;18.20;99.90;;;;;;5084465;28;20047;-71
2023/07/15 00:32:41;;;;;;;2.05;0.82;;;18.20;1.00;;;;;;5084810;28;20049;-71
2023/07/15 00:35:28;;;;;;;0.05;0.03;;;18.10;99.90;;;;;;5084422;28;20067;-71
2023/07/15 00:37:58;;;;;;;0.52;0.52;;;18.10;99.90;;;;;;5084802;28;20066;-74
2023/07/15 00:40:24;;;;;;;2.63;0.82;;;18.10;99.90;;;;;;5084296;28;20060;-71
2023/07/15 00:43:28;;;;;;;0.47;0.32;;;18.10;99.90;;;;;;5084820;28;20055;-71
2023/07/15 00:46:22;;;;;;;1.38;0.43;;;18.10;37.40;;;;;;5084539;28;20113;-71
2023/07/15 00:49:10;;;;;;;0.38;0.38;;;18.00;63.70;;;;;;5083647;28;20066;-71
2023/07/15 00:51:40;;;;;;;0.45;0.45;;;18.20;99.90;;;;;;5084611;28;20051;-71
2023/07/15 00:54:09;;;;;;;0.28;0.20;;;18.20;99.90;;;;;;5083868;28;20123;-71
2023/07/15 00:56:37;;;;;;;2.17;0.55;;;18.20;99.90;;;;;;5084198;28;20050;-71
2023/07/15 00:59:04;;;;;;;0.38;0.30;;;18.30;99.90;;;;;;5084229;28;20410;-71
2023/07/15 01:01:30;;;;;;;0.03;0.03;;;18.40;99.90;;;;;;5084256;28;20125;-71
2023/07/15 01:03:56;;;;;;;0.52;0.40;;;18.60;99.90;;;;;;5084463;28;20473;-71
2023/07/15 01:06:22;;;;;;;4.53;0.85;;;18.60;99.90;;;;;;5084321;28;20402;-71
2023/07/15 01:08:48;;;;;;;0.32;0.22;;;18.70;99.90;;;;;;5082245;28;20043;-71
2023/07/15 01:11:14;;;;;;;0.17;0.17;;;18.80;99.90;;;;;;5084403;28;20162;-71
2023/07/15 01:13:39;;;;;;;0.20;0.20;;;18.80;91.60;;;;;;5084049;28;20101;-71
2023/07/15 01:16:05;;;;;;;0.15;0.15;;;18.80;35.60;;;;;;5084176;28;20041;-71
2023/07/15 01:18:31;;;;;;;1.08;0.55;;;18.90;1.00;;;;;;5083901;28;20066;-71
2023/07/15 01:21:00;;;;;;;0.80;0.55;;;18.90;1.00;;;;;;5084061;28;20044;-71
2023/07/15 01:23:27;;;;;;;0.05;0.05;;;19.10;99.90;;;;;;5083679;28;20047;-72
2023/07/15 01:25:53;;;;;;;0.28;0.28;;;19.10;99.90;;;;;;5084137;28;20450;-71
2023/07/15 01:28:19;;;;;;;0.00;0.00;;;19.20;99.90;;;;;;5083981;28;20123;-71
2023/07/15 01:30:45;;;;;;;0.30;0.15;;;19.20;99.90;;;;;;5084113;28;20150;-71
2023/07/15 01:33:15;;;;;;;0.20;0.20;;;19.20;99.90;;;;;;5084011;28;20059;-71
2023/07/15 01:35:48;;;;;;;0.00;0.00;;;19.30;99.90;;;;;;5084405;28;20044;-71
2023/07/15 01:38:17;;;;;;;0.52;0.52;;;19.30;99.90;;;;;;5083791;28;20504;-71
2023/07/15 01:40:43;;;;;;;1.00;0.60;;;19.40;99.90;;;;;;5083834;28;20052;-71
2023/07/15 01:43:10;;;;;;;0.10;0.10;;;19.50;99.90;;;;;;5083946;28;20422;-72
2023/07/15 01:45:36;;;;;;;0.73;0.43;;;19.60;99.90;;;;;;5083687;28;20048;-72
2023/07/15 01:48:04;;;;;;;0.15;0.10;;;19.50;99.90;;;;;;5084096;28;20491;-71
2023/07/15 01:50:30;;;;;;;0.00;0.00;;;19.60;99.90;;;;;;5083749;28;20573;-72
2023/07/15 01:52:56;;;;;;;0.13;0.13;;;19.60;99.90;;;;;;5082326;28;20072;-72
2023/07/15 01:55:21;;;;;;;0.00;0.00;;;19.70;99.90;;;;;;5083505;28;20087;-71
2023/07/15 01:57:47;;;;;;;0.52;0.35;;;19.80;99.90;;;;;;5083375;28;20127;-71
2023/07/15 02:00:16;;;;;;;0.70;0.40;;;19.80;81.50;;;;;;5083430;28;20395;-71
2023/07/15 02:02:43;;;;;;;0.13;0.10;;;19.90;62.30;;;;;;5082493;28;20132;-71
2023/07/15 02:05:09;;;;;;;2.10;0.85;;;19.90;62.00;;;;;;5082858;28;20058;-72
2023/07/15 02:07:35;;;;;;;0.25;0.25;;;20.00;45.80;;;;;;5083556;28;20131;-72
2023/07/15 02:10:01;;;;;;;0.13;0.13;;;20.20;30.40;;;;;;5082956;28;20044;-72
2023/07/15 02:12:27;;;;;;;0.38;0.30;;;20.20;21.90;;;;;;5083779;28;20395;-72
2023/07/15 02:14:53;;;;;;;0.47;0.30;;;20.30;5.80;;;;;;5083453;28;20051;-71
2023/07/15 02:17:22;;;;;;;0.00;0.00;;;20.40;1.00;;;;;;5083903;28;20040;-72
2023/07/15 02:19:49;;;;;;;1.10;0.60;;;20.40;1.00;;;;;;5083187;28;20054;-72
2023/07/15 02:22:14;;;;;;;0.82;0.68;;;20.40;1.00;;;;;;5087562;28;20168;-72
2023/07/15 02:24:40;;;;;;;11.55;1.65;;;20.50;1.00;;;;;;5087285;28;20081;-72
2023/07/15 02:27:06;;;;;;;0.15;0.13;;;20.50;1.00;;;;;;5087267;28;20453;-72
2023/07/15 02:29:31;;;;;;;0.00;0.00;;;20.50;1.00;;;;;;5086862;28;20036;-71
2023/07/15 02:31:57;;;;;;;2.15;1.20;;;20.50;1.00;;;;;;5087082;28;20086;-72
2023/07/15 02:34:22;;;;;;;0.80;0.57;;;20.50;1.00;;;;;;5087229;28;20315;-72
2023/07/15 02:36:48;;;;;;;3.72;0.55;;;20.40;1.00;;;;;;5087023;28;20040;-72
2023/07/15 02:39:14;;;;;;;0.10;0.10;;;20.40;1.00;;;;;;5086726;28;20101;-71
2023/07/15 02:41:39;;;;;;;0.13;0.10;;;20.30;1.00;;;;;;5086724;28;20120;-72
2023/07/15 02:44:05;;;;;;;0.13;0.10;;;20.20;1.00;;;;;;5086887;28;20311;-72
2023/07/15 02:46:31;;;;;;;1.45;0.70;;;20.30;1.00;;;;;;5086560;28;20044;-72
2023/07/15 02:48:57;;;;;;;0.47;0.30;;;20.40;1.00;;;;;;5086703;28;20968;-72
2023/07/15 02:51:24;;;;;;;0.00;0.00;;;20.40;1.00;;;;;;5087078;28;20079;-72
2023/07/15 02:53:50;;;;;;;1.55;0.75;;;20.40;1.00;;;;;;5086862;28;20583;-72
2023/07/15 02:56:15;;;;;;;0.20;0.15;;;20.40;1.00;;;;;;5087212;28;20051;-73
2023/07/15 02:58:41;;;;;;;0.10;0.10;;;20.40;1.00;;;;;;5086651;28;20048;-72
2023/07/15 03:01:08;;;;;;;0.20;0.20;;;20.30;1.00;;;;;;5086289;28;20490;-72
2023/07/15 03:03:34;;;;;;;0.22;0.22;;;20.20;1.00;;;;;;5086430;28;20055;-71
2023/07/15 03:06:00;;;;;;;0.00;0.00;;;20.20;1.00;;;;;;5086688;28;20113;-72
2023/07/15 03:08:25;;;;;;;0.17;0.17;;;19.90;1.00;;;;;;5086328;28;20119;-72
2023/07/15 03:10:51;;;;;;;0.00;0.00;;;19.80;1.00;;;;;;5086525;28;20060;-72
2023/07/15 03:13:17;;;;;;;0.38;0.17;;;19.60;1.00;;;;;;5086449;28;20052;-72
2023/07/15 03:15:44;;;;;;;0.20;0.10;;;19.60;1.00;;;;;;5086297;28;20126;-71
2023/07/15 03:18:10;;;;;;;0.45;0.43;;;19.50;1.00;;;;;;5086493;28;20173;-72
2023/07/15 03:20:36;;;;;;;0.00;0.00;;;19.30;1.00;;;;;;5085942;28;20456;-71
2023/07/15 03:23:02;;;;;;;7.07;0.98;;;19.20;1.00;;;;;;5084851;28;20044;-72
2023/07/15 03:25:28;;;;;;;0.20;0.15;;;19.10;1.00;;;;;;5086111;28;20104;-71
2023/07/15 03:27:53;;;;;;;0.40;0.22;;;19.00;1.00;;;;;;5086028;28;20482;-71
2023/07/15 03:30:19;;;;;;;0.80;0.47;;;19.00;1.00;;;;;;5085281;28;20039;-71
2023/07/15 03:32:46;;;;;;;0.75;0.75;;;19.10;1.00;;;;;;5085074;28;20161;-71
2023/07/15 03:35:12;;;;;;;0.30;0.30;;;19.10;1.00;;;;;;5085613;28;20040;-71
2023/07/15 03:37:44;;;;;;;0.00;0.00;;;18.90;1.00;;;;;;5085265;28;20096;-71
2023/07/15 03:40:11;;;;;;;0.40;0.40;;;18.80;1.00;;;;;;5085685;28;20044;-71
2023/07/15 03:42:38;;;;;;;1.50;0.85;;;18.70;1.00;;;;;;5085724;28;20044;-71
2023/07/15 03:45:05;;;;;;;0.00;0.00;;;18.70;1.00;;;;;;5085605;28;20075;-71
2023/07/15 03:47:31;;;;;;;0.00;0.00;;;18.60;1.00;;;;;;5085672;28;20152;-71
2023/07/15 03:49:57;;;;;;;0.00;0.00;;;18.50;1.00;;;;;;5085690;28;20476;-71
2023/07/15 03:52:23;;;;;;;0.45;0.38;;;18.40;1.00;;;;;;5085480;28;20076;-71
2023/07/15 03:54:48;;;;;;;0.22;0.15;;;18.30;1.00;;;;;;5085425;28;20087;-71
2023/07/15 03:57:14;;;;;;;0.00;0.00;;;18.30;5.30;;;;;;5085099;28;20040;-71
2023/07/15 03:59:40;;;;;;;0.00;0.00;;;18.30;12.40;;;;;;5085213;28;20047;-72
2023/07/15 04:02:06;;;;;;;0.13;0.13;;;18.30;17.80;;;;;;5085661;28;20047;-71
2023/07/15 04:04:31;;;;;;;0.38;0.38;;;18.20;20.90;;;;;;5086066;28;20051;-72
2023/07/15 04:07:01;;;;;;;0.43;0.43;;;18.30;25.40;;;;;;5085006;28;20402;-72
2023/07/15 04:09:27;;;;;;;2.20;0.70;;;18.30;25.90;;;;;;5084789;28;20135;-71
2023/07/15 04:11:53;;;;;;;0.55;0.55;;;18.30;31.70;;;;;;5085378;28;20070;-71
2023/07/15 04:14:18;;;;;;;0.10;0.10;;;18.20;52.60;;;;;;5085113;28;20477;-71
2023/07/15 04:16:44;;;;;;;0.00;0.00;;;18.30;57.40;;;;;;5083564;28;20043;-71
2023/07/15 04:19:10;;;;;;;0.22;0.20;;;18.20;67.90;;;;;;5084925;28;20044;-71
2023/07/15 04:21:36;;;;;;;0.20;0.20;;;18.20;70.00;;;;;;5084586;28;20510;-71
2023/07/15 04:24:05;;;;;;;0.32;0.22;;;18.20;70.30;;;;;;5084853;28;20151;-71
2023/07/15 04:26:30;;;;;;;0.30;0.22;;;18.20;88.80;;;;;;5084528;28;20528;-72
2023/07/15 04:28:56;;;;;;;0.08;0.08;;;18.20;90.80;;;;;;5084928;28;20040;-71
2023/07/15 04:31:22;;;;;;;0.15;0.15;;;18.30;95.30;;;;;;5085033;28;20051;-71
2023/07/15 04:33:49;;;;;;;2.03;0.25;;;18.30;95.00;;;;;;5084829;28;20036;-71
2023/07/15 04:36:17;;;;;;;1.02;0.60;;;18.40;97.90;;;;;;5084687;28;20048;-71
2023/07/15 04:38:42;;;;;;;0.73;0.52;;;18.40;99.90;;;;;;5084404;28;20047;-71
2023/07/15 04:41:08;;;;;;;0.45;0.30;;;18.50;99.50;;;;;;5084658;28;20052;-71
2023/07/15 04:43:34;;;;;;;0.00;0.00;;;18.60;99.90;;;;;;5083652;28;20123;-71
2023/07/15 04:46:00;;;;;;;0.45;0.30;;;18.70;99.90;;;;;;5084683;28;20078;-72
2023/07/15 04:48:26;;;;;;;1.20;0.50;;;18.80;99.90;;;;;;5084626;28;20040;-70
2023/07/15 04:50:52;;;;;;;0.40;0.35;;;18.90;99.90;;;;;;5084627;28;20051;-72
2023/07/15 04:53:17;;;;;;;0.82;0.38;;;19.30;99.90;;;;;;5084603;28;20047;-71
2023/07/15 04:55:45;;;;;;;0.38;0.15;;;20.00;99.90;;;;;;5084314;28;20062;-72
2023/07/15 04:58:12;;;;;;;0.00;0.00;;;21.00;90.60;;;;;;5084640;28;20083;-72
2023/07/15 05:00:37;;;;;;;0.10;0.10;;;21.80;88.60;;;;;;5084375;28;20101;-72
2023/07/15 05:03:06;;;;;;;0.10;0.10;;;22.40;64.60;;;;;;5084128;28;20052;-71
2023/07/15 05:05:32;;;;;;;0.00;0.00;;;22.70;47.50;;;;;;5084460;28;20051;-72
2023/07/15 05:08:09;;;;;;;0.22;0.15;;;23.00;50.50;;;;;;5084158;28;20554;-72
2023/07/15 05:10:34;;;;;;;0.57;0.43;;;22.70;3.20;;;;;;5084038;28;20379;-72
2023/07/15 05:13:00;;;;;;;0.10;0.10;;;22.20;1.00;;;;;;5084172;28;20051;-72
2023/07/15 05:15:26;;;;;;;0.47;0.20;;;22.30;1.00;;;;;;5084273;28;20196;-72
2023/07/15 05:17:52;;;;;;;2.13;0.82;;;22.80;1.00;;;;;;5083509;28;20517;-72
2023/07/15 05:20:18;;;;;;;0.32;0.32;;;23.30;2.80;;;;;;5084170;28;20440;-71
2023/07/15 05:22:44;;;;;;;0.03;0.03;;;24.10;5.70;;;;;;5084809;28;20048;-72
2023/07/15 05:25:10;;;;;;;0.00;0.00;;;24.20;1.00;;;;;;5084321;28;20040;-74
2023/07/15 05:27:36;;;;;;;0.28;0.28;;;24.50;15.50;;;;;;5084089;28;20127;-72
2023/07/15 05:30:01;;;;;;;0.10;0.10;;;24.80;1.00;;;;;;5083472;28;20048;-72
2023/07/15 05:32:27;;;;;;;0.75;0.30;;;25.20;1.00;;;;;;5083758;28;20051;-72
2023/07/15 05:34:53;;;;;;;0.00;0.00;;;25.50;1.00;;;;;;5084090;28;20047;-72
2023/07/15 05:37:18;;;;;;;0.20;0.20;;;26.00;1.00;;;;;;5083684;28;20040;-72
2023/07/15 05:39:47;;;;;;;0.00;0.00;;;26.10;1.00;;;;;;5083400;28;20044;-72
2023/07/15 05:42:13;;;;;;;0.13;0.13;;;26.30;1.00;;;;;;5083389;28;20162;-72
2023/07/15 05:44:38;;;;;;;0.32;0.20;;;26.40;1.00;;;;;;5083533;28;20126;-72
2023/07/15 05:47:04;;;;;;;0.75;0.52;;;26.70;1.00;;;;;;5083757;28;20051;-72
2023/07/15 05:49:30;;;;;;;0.20;0.20;;;26.80;1.00;;;;;;5083248;28;20551;-72
2023/07/15 05:51:55;;;;;;;2.10;1.20;;;27.00;1.00;;;;;;5083377;28;20055;-72
2023/07/15 05:54:21;;;;;;;0.45;0.40;;;27.10;1.00;;;;;;5083513;28;20094;-72
2023/07/15 05:56:47;;;;;;;1.80;0.57;;;27.30;1.00;;;;;;5086894;28;20069;-72
2023/07/15 05:59:12;;;;;;;1.95;0.98;;;27.40;1.00;;;;;;5087519;28;20044;-72
2023/07/15 06:01:38;;;;;;;0.00;0.00;;;27.70;1.00;;;;;;5088067;28;20453;-72
2023/07/15 06:04:06;;;;;;;0.10;0.10;;;27.90;1.00;;;;;;5087089;28;20074;-72
2023/07/15 06:06:32;;;;;;;0.10;0.10;;;28.10;1.00;;;;;;5086905;28;20069;-72
2023/07/15 06:08:58;;;;;;;0.10;0.10;;;28.50;1.00;;;;;;5087179;28;20070;-72
2023/07/15 06:11:23;;;;;;;1.77;0.15;;;28.60;99.90;;;;;;5087152;28;20036;-72
2023/07/15 06:13:49;;;;;;;1.17;0.35;;;28.60;99.90;;;;;;5086720;28;20093;-72
2023/07/15 06:16:14;;;;;;;0.88;0.60;;;28.80;99.90;;;;;;5086967;28;20044;-72
2023/07/15 06:18:40;;;;;;;0.28;0.13;;;29.20;99.90;;;;;;5087060;28;20530;-72
2023/07/15 06:21:07;;;;;;;0.28;0.20;;;29.40;99.90;;;;;;5087136;28;20135;-72
2023/07/15 06:23:33;;;;;;;1.02;0.50;;;29.50;99.90;;;;;;5087361;28;20048;-72
2023/07/15 06:25:59;;;;;;;0.03;0.03;;;29.70;99.90;;;;;;5086966;28;20051;-72
2023/07/15 06:28:25;;;;;;;0.00;0.00;;;30.00;99.90;;;;;;5087175;28;20102;-72
2023/07/15 06:31:03;;;;;;;0.10;0.10;;;30.30;99.90;;;;;;5086768;28;20075;-72
2023/07/15 06:33:29;;;;;;;0.50;0.50;;;30.50;99.90;;;;;;5084526;28;20547;-72
2023/07/15 06:35:54;;;;;;;1.60;0.82;;;29.80;99.90;;;;;;5076151;28;20052;-72
2023/07/15 06:38:21;;;;;;;4.07;0.13;;;29.70;99.90;;;;;;5069299;28;20087;-72
2023/07/15 06:40:46;;;;;;;0.20;0.20;;;29.10;99.90;;;;;;5070936;28;20044;-72
2023/07/15 06:43:12;;;;;;;0.20;0.20;;;28.90;99.90;;;;;;5086694;28;20055;-72
2023/07/15 06:45:38;;;;;;;0.35;0.30;;;28.70;99.90;;;;;;5086542;28;20464;-72
2023/07/15 06:48:04;;;;;;;0.38;0.35;;;28.30;99.90;;;;;;5086333;28;20047;-72
2023/07/15 06:50:29;;;;;;;0.20;0.20;;;28.10;99.90;;;;;;5086076;28;20405;-71
2023/07/15 06:52:55;;;;;;;0.75;0.50;;;27.70;99.90;;;;;;5086493;28;20104;-72
2023/07/15 06:55:21;;;;;;;0.22;0.13;;;27.40;99.90;;;;;;5086138;28;20104;-72
2023/07/15 06:57:47;;;;;;;2.50;0.57;;;27.40;99.90;;;;;;5086449;28;20052;-72
2023/07/15 07:00:13;;;;;;;0.03;0.03;;;27.50;99.90;;;;;;5086164;28;20490;-73
2023/07/15 07:02:39;;;;;;;0.00;0.00;;;27.60;99.90;;;;;;5084582;28;20055;-73
2023/07/15 07:05:05;;;;;;;1.00;0.60;;;27.80;99.90;;;;;;5085634;28;20036;-73
2023/07/15 07:07:30;;;;;;;0.35;0.28;;;28.50;99.90;;;;;;5085918;28;20399;-73
2023/07/15 07:09:56;;;;;;;0.00;0.00;;;29.20;99.90;;;;;;5087440;28;20063;-73
2023/07/15 07:12:22;;;;;;;0.43;0.25;;;29.40;99.90;;;;;;5087656;28;20051;-73
2023/07/15 07:14:48;;;;;;;0.20;0.20;;;29.80;99.90;;;;;;5087481;28;20538;-73
2023/07/15 07:17:14;;;;;;;0.75;0.40;;;29.90;99.90;;;;;;5087545;28;20055;-73
2023/07/15 07:19:39;;;;;;;0.65;0.38;;;30.30;99.90;;;;;;5087088;28;20047;-73
2023/07/15 07:22:05;;;;;;;0.80;0.50;;;30.70;99.90;;;;;;5086011;28;20044;-73
2023/07/15 07:24:31;;;;;;;0.70;0.30;;;30.90;99.90;;;;;;5085274;28;20182;-74
2023/07/15 07:26:57;;;;;;;0.70;0.70;;;30.60;99.90;;;;;;5086761;28;20090;-73
2023/07/15 07:29:23;;;;;;;0.00;0.00;;;30.50;99.90;;;;;;5087251;28;20043;-73
2023/07/15 07:31:52;;;;;;;0.00;0.00;;;30.50;99.90;;;;;;5087000;28;20521;-72
2023/07/15 07:34:18;;;;;;;0.73;0.40;;;30.70;99.90;;;;;;5086014;28;20135;-72
2023/07/15 07:36:44;;;;;;;0.00;0.00;;;30.80;99.90;;;;;;5086153;28;20050;-73
2023/07/15 07:39:10;;;;;;;0.00;0.00;;;31.10;99.90;;;;;;5085317;28;20073;-72
2023/07/15 07:41:36;;;;;;;0.00;0.00;;;31.40;99.90;;;;;;5085558;28;20603;-72
2023/07/15 07:44:02;;;;;;;0.00;0.00;;;31.60;99.90;;;;;;5085946;28;20083;-72
2023/07/15 07:46:27;;;;;;;0.20;0.13;;;31.10;99.90;;;;;;5085911;28;20048;-72
2023/07/15 07:48:53;;;;;;;0.15;0.08;;;31.00;99.90;;;;;;5085642;28;20040;-72
2023/07/15 07:51:19;;;;;;;0.10;0.10;;;30.90;99.90;;;;;;5083312;28;20519;-72
2023/07/15 07:53:44;;;;;;;0.13;0.13;;;30.80;99.90;;;;;;5084004;28;20555;-72
2023/07/15 07:56:11;;;;;;;0.00;0.00;;;30.80;99.90;;;;;;5084287;28;20123;-72
2023/07/15 07:58:38;;;;;;;0.10;0.10;;;30.90;99.90;;;;;;5085253;28;20402;-72
2023/07/15 08:01:04;;;;;;;2.08;0.75;;;31.00;99.90;;;;;;5083537;28;20539;-72
2023/07/15 08:03:30;;;;;;;0.35;0.10;;;31.20;99.90;;;;;;5085043;28;20055;-73
2023/07/15 08:05:57;;;;;;;0.25;0.17;;;31.40;99.90;;;;;;5083143;28;20047;-73
2023/07/15 08:08:22;;;;;;;0.00;0.00;;;31.90;99.90;;;;;;5082927;28;20040;-73
2023/07/15 08:10:48;;;;;;;0.20;0.20;;;32.10;99.90;;;;;;5078224;28;20097;-72
2023/07/15 08:13:14;;;;;;;0.75;0.25;;;31.90;99.90;;;;;;5074687;28;20042;-72
2023/07/15 08:15:39;;;;;;;0.90;0.30;;;31.30;99.90;;;;;;5068298;28;20115;-72
2023/07/15 08:18:06;;;;;;;1.08;0.30;;;30.80;99.90;;;;;;5063201;28;20044;-72
2023/07/15 08:20:32;;;;;;;0.30;0.13;;;30.20;99.90;;;;;;5071752;28;20458;-72
2023/07/15 08:23:00;;;;;;;0.05;0.05;;;29.90;99.90;;;;;;5082329;28;20048;-72
2023/07/15 08:25:26;;;;;;;0.38;0.22;;;30.60;99.90;;;;;;5082723;28;20474;-72
2023/07/15 08:27:53;;;;;;;0.00;0.00;;;30.70;99.90;;;;;;5082790;28;20131;-72
2023/07/15 08:30:20;;;;;;;0.10;0.10;;;31.10;99.90;;;;;;5082158;28;20036;-72
2023/07/15 08:32:46;;;;;;;0.00;0.00;;;31.60;99.90;;;;;;5082569;28;20499;-72
2023/07/15 08:35:11;;;;;;;0.28;0.20;;;31.80;99.90;;;;;;5082768;28;20040;-72
2023/07/15 08:37:37;;;;;;;0.90;0.35;;;31.10;99.90;;;;;;5083621;28;20140;-73
2023/07/15 08:40:03;;;;;;;0.10;0.00;;;30.50;99.90;;;;;;5084105;28;20589;-73
2023/07/15 08:42:30;;;;;;;0.00;0.00;;;30.30;99.90;;;;;;5084417;28;20572;-72
2023/07/15 08:44:56;;;;;;;0.17;0.13;;;29.80;99.90;;;;;;5083661;28;20109;-72
2023/07/15 08:47:25;;;;;;;0.00;0.00;;;30.00;99.90;;;;;;5082638;28;20052;-72
2023/07/15 08:49:53;;;;;;;0.17;0.15;;;30.90;99.90;;;;;;5081941;28;20514;-73
2023/07/15 08:52:23;;;;;;;0.00;0.00;;;31.30;99.90;;;;;;5081965;28;20040;-73
2023/07/15 08:54:53;;;;;;;0.22;0.22;;;30.80;99.90;;;;;;5082497;28;20099;-73
2023/07/15 08:57:22;;;;;;;0.15;0.15;;;30.20;99.90;;;;;;5081928;28;20737;-73
2023/07/15 08:59:49;;;;;;;0.10;0.10;;;30.00;99.90;;;;;;5082182;28;20052;-73
2023/07/15 09:02:15;;;;;;;0.00;0.00;;;30.20;99.90;;;;;;5081995;28;20433;-73
2023/07/15 09:04:40;;;;;;;0.17;0.10;;;30.50;99.90;;;;;;5082201;28;20582;-73
2023/07/15 09:07:06;;;;;;;0.32;0.22;;;30.90;99.90;;;;;;5080413;28;20568;-73
2023/07/15 09:09:39;;;;;;;0.15;0.15;;;31.20;99.90;;;;;;5082343;28;20040;-73
2023/07/15 09:12:09;;;;;;;0.00;0.00;;;31.30;99.90;;;;;;5081562;28;20074;-73
2023/07/15 09:14:42;;;;;;;0.13;0.13;;;31.30;99.90;;;;;;5082131;28;20050;-73
2023/07/15 09:17:07;;;;;;;0.65;0.28;;;31.40;99.90;;;;;;5082061;28;20387;-73
2023/07/15 09:19:35;;;;;;;0.00;0.00;;;31.90;99.90;;;;;;5081877;28;20048;-73
2023/07/15 09:22:08;;;;;;;0.55;0.40;;;32.60;99.90;;;;;;5081997;28;20055;-73
2023/07/15 09:24:37;;;;;;;0.30;0.28;;;32.60;99.90;;;;;;5081757;28;20142;-73
2023/07/15 09:27:03;;;;;;;0.10;0.10;;;31.50;99.90;;;;;;5081746;28;20040;-73
2023/07/15 09:29:29;;;;;;;0.13;0.10;;;30.90;99.90;;;;;;5081316;28;20092;-73
2023/07/15 09:31:56;;;;;;;0.13;0.13;;;31.20;99.90;;;;;;5081606;28;20040;-73
2023/07/15 09:34:25;;;;;;;0.28;0.28;;;32.20;99.90;;;;;;5081898;28;20055;-73
2023/07/15 09:36:52;;;;;;;0.65;0.43;;;33.20;99.90;;;;;;5081224;28;20177;-73
2023/07/15 09:39:22;;;;;;;0.82;0.30;;;33.60;99.90;;;;;;5080198;28;20047;-73
2023/07/15 09:42:07;;;;;;;0.15;0.00;;;32.70;99.90;;;;;;5081951;28;20052;-73
2023/07/15 09:44:41;;;;;;;0.93;0.20;;;32.40;99.90;;;;;;5081870;28;20081;-72
2023/07/15 09:47:07;;;;;;;0.00;0.00;;;32.30;99.90;;;;;;5081802;28;20120;-73
2023/07/15 09:49:34;;;;;;;0.10;0.10;;;32.10;99.90;;;;;;5081319;28;20040;-73
2023/07/15 09:52:01;;;;;;;0.20;0.17;;;31.60;99.90;;;;;;5081779;28;20055;-73
2023/07/15 09:54:29;;;;;;;0.00;0.00;;;31.10;99.90;;;;;;5081539;28;20043;-73
2023/07/15 09:57:11;;;;;;;0.10;0.10;;;31.10;99.90;;;;;;5081587;28;20067;-73
2023/07/15 09:59:47;;;;;;;0.32;0.32;;;30.70;99.90;;;;;;5081830;28;20095;-73
2023/07/15 10:02:35;;;;;;;0.20;0.15;;;30.80;99.90;;;;;;5081368;28;20584;-72
2023/07/15 10:05:05;;;;;;;0.10;0.10;;;31.40;99.90;;;;;;5081532;28;20624;-72
2023/07/15 10:07:32;;;;;;;0.55;0.40;;;31.40;99.90;;;;;;5080967;28;20056;-72
2023/07/15 10:10:01;;;;;;;0.00;0.00;;;31.00;99.90;;;;;;5081588;28;20040;-72
2023/07/15 10:12:27;;;;;;;1.70;0.22;;;30.70;99.90;;;;;;5081214;28;20048;-72
2023/07/15 10:14:54;;;;;;;0.22;0.20;;;30.60;99.90;;;;;;5081567;28;20522;-73
2023/07/15 10:17:19;;;;;;;0.00;0.00;;;30.70;99.90;;;;;;5081628;28;21263;-73
2023/07/15 10:19:50;;;;;;;0.40;0.40;;;30.90;99.90;;;;;;5081151;28;20048;-73
2023/07/15 10:22:23;;;;;;;0.00;0.00;;;31.10;99.90;;;;;;5081414;28;20044;-72
2023/07/15 10:24:55;;;;;;;0.00;0.00;;;31.50;99.90;;;;;;5081283;28;20051;-73
2023/07/15 10:27:20;;;;;;;0.00;0.00;;;31.80;99.90;;;;;;5081195;28;20048;-73
2023/07/15 10:29:46;;;;;;;0.05;0.00;;;31.90;99.90;;;;;;5081111;28;20619;-72
2023/07/15 10:32:14;;;;;;;0.10;0.10;;;31.90;99.90;;;;;;5082611;28;20051;-72
2023/07/15 10:34:51;;;;;;;0.00;0.00;;;31.80;99.90;;;;;;5084037;28;20070;-72
2023/07/15 10:37:20;;;;;;;0.32;0.30;;;31.90;99.90;;;;;;5083564;28;20059;-73
2023/07/15 10:39:46;;;;;;;0.00;0.00;;;31.80;99.90;;;;;;5083316;28;20509;-72
2023/07/15 10:42:18;;;;;;;0.35;0.25;;;31.90;99.90;;;;;;5085954;28;20135;-72
2023/07/15 10:44:54;;;;;;;0.00;0.00;;;32.00;99.90;;;;;;5083268;28;20040;-72
2023/07/15 10:47:20;;;;;;;0.32;0.25;;;31.80;99.90;;;;;;5084925;28;20178;-73
2023/07/15 10:49:48;;;;;;;0.10;0.10;;;31.60;99.90;;;;;;5084569;28;20037;-72
2023/07/15 10:52:19;;;;;;;0.00;0.00;;;31.70;99.90;;;;;;5084724;28;20063;-72
2023/07/15 10:54:45;;;;;;;0.00;0.00;;;31.80;99.90;;;;;;5084109;28;20516;-72
2023/07/15 10:57:15;;;;;;;0.00;0.00;;;31.70;99.90;;;;;;5084078;28;20076;-72
2023/07/15 10:59:43;;;;;;;0.03;0.03;;;31.30;99.90;;;;;;5084276;28;20101;-72
2023/07/15 11:02:10;;;;;;;0.00;0.00;;;30.90;99.90;;;;;;5083518;28;20083;-72
2023/07/15 11:04:36;;;;;;;7.47;0.52;;;30.80;99.90;;;;;;5083539;28;20048;-72
2023/07/15 11:07:04;;;;;;;0.10;0.10;;;30.80;99.90;;;;;;5084798;28;20398;-72
2023/07/15 11:09:30;;;;;;;0.22;0.22;;;30.60;99.90;;;;;;5084095;28;20511;-73
2023/07/15 11:11:56;;;;;;;2.53;0.93;;;30.60;99.90;;;;;;5082885;28;20411;-72
2023/07/15 11:14:24;;;;;;;0.10;0.10;;;30.50;99.90;;;;;;5084991;28;20082;-72
2023/07/15 11:16:58;;;;;;;0.13;0.10;;;30.40;99.90;;;;;;5081042;28;20318;-72
2023/07/15 11:19:27;;;;;;;0.47;0.22;;;30.30;99.90;;;;;;5073541;28;20135;-72
2023/07/15 11:21:54;;;;;;;0.40;0.20;;;30.70;99.90;;;;;;5061257;28;20493;-72
2023/07/15 11:24:25;;;;;;;0.20;0.10;;;30.90;99.90;;;;;;5061344;28;20055;-72
2023/07/15 11:26:51;;;;;;;0.10;0.10;;;30.50;99.90;;;;;;5061282;28;20655;-73
2023/07/15 11:29:21;;;;;;;0.00;0.00;;;30.10;99.90;;;;;;5061155;28;20102;-72
2023/07/15 11:31:54;;;;;;;0.30;0.10;;;29.90;99.90;;;;;;5061639;28;20131;-72
2023/07/15 11:34:27;;;;;;;0.00;0.00;;;29.60;99.90;;;;;;5061316;28;20049;-72
2023/07/15 11:36:54;;;;;;;0.28;0.13;;;29.20;99.90;;;;;;5061422;28;20295;-72
2023/07/15 11:39:21;;;;;;;3.28;0.52;;;29.10;99.90;;;;;;5060926;28;20048;-72
2023/07/15 11:41:49;;;;;;;0.10;0.10;;;29.20;99.90;;;;;;5060483;28;20543;-73
2023/07/15 11:44:21;;;;;;;0.10;0.10;;;29.10;99.90;;;;;;5060966;28;20509;-72
2023/07/15 11:46:47;;;;;;;0.35;0.30;;;28.90;99.90;;;;;;5060941;28;20051;-73
2023/07/15 11:49:19;;;;;;;0.05;0.00;;;29.10;99.90;;;;;;5061092;28;20045;-73
2023/07/15 11:51:45;;;;;;;0.00;0.00;;;29.30;99.90;;;;;;5060767;28;20040;-72
2023/07/15 11:54:15;;;;;;;0.00;0.00;;;29.40;99.90;;;;;;5060169;28;20037;-72
2023/07/15 11:56:43;;;;;;;0.00;0.00;;;29.50;99.90;;;;;;5060325;28;20037;-72
2023/07/15 11:59:32;;;;;;;0.03;0.03;;;29.60;99.90;;;;;;5060657;28;20087;-72
2023/07/15 12:01:59;;;;;;;0.00;0.00;;;29.60;99.90;;;;;;5060357;28;20503;-72
2023/07/15 12:04:28;;;;;;;0.43;0.35;;;29.50;99.90;;;;;;5060457;28;20044;-73
2023/07/15 12:06:54;;;;;;;1.42;0.38;;;29.40;99.90;;;;;;5076009;28;20127;-73
2023/07/15 12:09:21;;;;;;;1.20;0.38;;;29.20;99.90;;;;;;5060112;28;20128;-73
2023/07/15 12:11:48;;;;;;;0.13;0.13;;;29.20;99.90;;;;;;5060531;28;20655;-73
2023/07/15 12:14:15;;;;;;;0.10;0.05;;;29.60;99.90;;;;;;5060362;28;20103;-73
2023/07/15 12:16:42;;;;;;;0.73;0.47;;;29.80;99.90;;;;;;5059863;28;20052;-73
2023/07/15 12:19:13;;;;;;;0.45;0.30;;;30.70;99.90;;;;;;5059939;28;20419;-72
2023/07/15 12:21:40;;;;;;;2.47;0.77;;;31.90;99.90;;;;;;5059823;28;20506;-73
2023/07/15 12:24:06;;;;;;;0.00;0.00;;;31.80;99.90;;;;;;5060374;28;20142;-73
2023/07/15 12:26:32;;;;;;;0.80;0.32;;;31.10;99.90;;;;;;5060136;28;20135;-73
2023/07/15 12:28:58;;;;;;;0.00;0.00;;;31.60;99.90;;;;;;5059944;28;20075;-73
2023/07/15 12:31:24;;;;;;;3.47;0.43;;;32.10;99.90;;;;;;5059918;28;20518;-73
2023/07/15 12:33:50;;;;;;;0.40;0.32;;;31.90;99.90;;;;;;5059619;28;20540;-73
2023/07/15 12:36:17;;;;;;;0.00;0.00;;;32.50;99.90;;;;;;5060416;28;20064;-73
2023/07/15 12:38:43;;;;;;;0.25;0.10;;;32.20;99.90;;;;;;5059999;28;20387;-73
2023/07/15 12:41:09;;;;;;;9.13;0.85;;;32.10;99.90;;;;;;5058006;28;20059;-73
2023/07/15 12:43:36;;;;;;;0.00;0.00;;;32.00;99.90;;;;;;5059851;28;20040;-73
2023/07/15 12:46:02;;;;;;;0.45;0.35;;;32.30;99.90;;;;;;5060004;28;20044;-73
2023/07/15 12:48:28;;;;;;;0.45;0.25;;;32.10;99.90;;;;;;5059390;28;20396;-73
2023/07/15 12:50:54;;;;;;;1.10;0.43;;;32.30;99.90;;;;;;5059328;28;20048;-73